sensor_id;sensor_type;location;lat;lon;timestamp;pressure;altitude;pressure_sealevel;temperature;humidity
3748;BME280;1889;50.058;8.688;2023-05-14T00:01:44;100394.86;;;15.79;64.54
3748;BME280;1889;50.058;8.688;2023-05-14T00:04:14;100390.83;;;15.81;64.33
3748;BME280;1889;50.058;8.688;2023-05-14T00:06:44;100393.07;;;15.67;64.33
3748;BME280;1889;50.058;8.688;2023-05-14T00:09:14;100389.55;;;15.66;64.99
3748;BME280;1889;50.058;8.688;2023-05-14T00:11:43;100389.55;;;15.66;64.99
3748;BME280;1889;50.058;8.688;2023-05-14T00:14:13;100388.22;;;15.66;64.79
3748;BME280;1889;50.058;8.688;2023-05-14T00:16:42;100396.86;;;15.73;64.67
3748;BME280;1889;50.058;8.688;2023-05-14T00:19:11;100392.20;;;15.66;64.63
3748;BME280;1889;50.058;8.688;2023-05-14T00:21:41;100394.61;;;15.60;65.21
3748;BME280;1889;50.058;8.688;2023-05-14T00:24:10;100384.62;;;15.55;64.73
3748;BME280;1889;50.058;8.688;2023-05-14T00:26:39;100384.62;;;15.55;64.73
3748;BME280;1889;50.058;8.688;2023-05-14T00:29:09;100383.55;;;15.61;65.33
3748;BME280;1889;50.058;8.688;2023-05-14T00:31:38;100383.55;;;15.61;65.33
3748;BME280;1889;50.058;8.688;2023-05-14T00:34:07;100380.44;;;15.61;65.09
3748;BME280;1889;50.058;8.688;2023-05-14T00:36:36;100379.24;;;15.57;65.25
3748;BME280;1889;50.058;8.688;2023-05-14T00:39:06;100373.15;;;15.55;65.15
3748;BME280;1889;50.058;8.688;2023-05-14T00:41:35;100373.15;;;15.55;65.15
3748;BME280;1889;50.058;8.688;2023-05-14T00:44:05;100367.62;;;15.61;65.19
3748;BME280;1889;50.058;8.688;2023-05-14T00:46:34;100367.62;;;15.61;65.19
3748;BME280;1889;50.058;8.688;2023-05-14T00:49:03;100368.17;;;15.57;65.08
3748;BME280;1889;50.058;8.688;2023-05-14T00:51:33;100359.84;;;15.56;65.01
3748;BME280;1889;50.058;8.688;2023-05-14T00:54:02;100361.31;;;15.50;65.17
3748;BME280;1889;50.058;8.688;2023-05-14T00:56:32;100358.14;;;15.54;65.20
3748;BME280;1889;50.058;8.688;2023-05-14T00:59:02;100360.62;;;15.58;64.96
3748;BME280;1889;50.058;8.688;2023-05-14T01:01:31;100358.38;;;15.59;65.06
3748;BME280;1889;50.058;8.688;2023-05-14T01:04:01;100357.88;;;15.61;64.97
3748;BME280;1889;50.058;8.688;2023-05-14T01:06:43;100356.23;;;15.57;64.93
3748;BME280;1889;50.058;8.688;2023-05-14T01:09:18;100360.22;;;15.57;65.02
3748;BME280;1889;50.058;8.688;2023-05-14T01:12:13;100360.22;;;15.57;65.02
3748;BME280;1889;50.058;8.688;2023-05-14T01:15:06;100360.05;;;15.36;65.15
3748;BME280;1889;50.058;8.688;2023-05-14T01:17:30;100360.62;;;15.32;65.13
3748;BME280;1889;50.058;8.688;2023-05-14T01:19:59;100360.62;;;15.32;65.13
3748;BME280;1889;50.058;8.688;2023-05-14T01:22:29;100352.35;;;15.28;65.15
3748;BME280;1889;50.058;8.688;2023-05-14T01:24:58;100352.35;;;15.28;65.15
3748;BME280;1889;50.058;8.688;2023-05-14T01:27:51;100352.85;;;15.26;65.35
3748;BME280;1889;50.058;8.688;2023-05-14T01:33:01;100350.33;;;15.23;65.38
3748;BME280;1889;50.058;8.688;2023-05-14T01:35:31;100350.33;;;15.23;65.38
3748;BME280;1889;50.058;8.688;2023-05-14T01:38:03;100357.00;;;15.21;65.44
3748;BME280;1889;50.058;8.688;2023-05-14T01:40:35;100352.77;;;15.16;65.52
3748;BME280;1889;50.058;8.688;2023-05-14T01:43:05;100351.91;;;15.15;65.46
3748;BME280;1889;50.058;8.688;2023-05-14T01:45:35;100354.89;;;15.18;65.24
3748;BME280;1889;50.058;8.688;2023-05-14T01:48:04;100355.87;;;15.15;65.14
3748;BME280;1889;50.058;8.688;2023-05-14T01:50:34;100351.63;;;15.10;65.34
3748;BME280;1889;50.058;8.688;2023-05-14T01:53:03;100349.39;;;15.11;65.27
3748;BME280;1889;50.058;8.688;2023-05-14T01:55:32;100356.13;;;15.08;65.40
3748;BME280;1889;50.058;8.688;2023-05-14T01:58:02;100347.03;;;15.02;65.58
3748;BME280;1889;50.058;8.688;2023-05-14T02:00:31;100346.53;;;15.04;65.59
3748;BME280;1889;50.058;8.688;2023-05-14T02:03:00;100342.14;;;15.03;65.54
3748;BME280;1889;50.058;8.688;2023-05-14T02:05:29;100343.26;;;15.09;65.70
3748;BME280;1889;50.058;8.688;2023-05-14T02:07:59;100343.26;;;15.09;65.70
3748;BME280;1889;50.058;8.688;2023-05-14T02:10:29;100340.61;;;15.09;65.62
3748;BME280;1889;50.058;8.688;2023-05-14T02:12:58;100345.37;;;14.84;66.06
3748;BME280;1889;50.058;8.688;2023-05-14T02:15:28;100343.33;;;14.79;66.18
3748;BME280;1889;50.058;8.688;2023-05-14T02:17:57;100341.92;;;14.68;66.33
3748;BME280;1889;50.058;8.688;2023-05-14T02:20:27;100343.92;;;14.30;67.52
3748;BME280;1889;50.058;8.688;2023-05-14T02:22:56;100347.56;;;13.95;68.66
3748;BME280;1889;50.058;8.688;2023-05-14T02:25:25;100342.44;;;14.05;68.41
3748;BME280;1889;50.058;8.688;2023-05-14T02:27:55;100336.89;;;14.29;67.71
3748;BME280;1889;50.058;8.688;2023-05-14T02:30:24;100339.44;;;14.48;66.94
3748;BME280;1889;50.058;8.688;2023-05-14T02:32:53;100327.80;;;14.38;66.89
3748;BME280;1889;50.058;8.688;2023-05-14T02:35:23;100326.44;;;14.41;66.88
3748;BME280;1889;50.058;8.688;2023-05-14T02:37:52;100329.76;;;14.47;66.61
3748;BME280;1889;50.058;8.688;2023-05-14T02:40:21;100325.30;;;14.49;66.43
3748;BME280;1889;50.058;8.688;2023-05-14T02:42:51;100328.60;;;14.27;66.53
3748;BME280;1889;50.058;8.688;2023-05-14T02:45:21;100324.36;;;13.74;68.69
3748;BME280;1889;50.058;8.688;2023-05-14T02:47:50;100326.02;;;13.94;68.06
3748;BME280;1889;50.058;8.688;2023-05-14T02:50:19;100327.46;;;14.04;67.56
3748;BME280;1889;50.058;8.688;2023-05-14T02:52:49;100332.50;;;14.28;66.62
3748;BME280;1889;50.058;8.688;2023-05-14T02:55:18;100330.23;;;14.31;66.54
3748;BME280;1889;50.058;8.688;2023-05-14T02:57:47;100327.28;;;14.27;66.69
3748;BME280;1889;50.058;8.688;2023-05-14T03:00:17;100329.58;;;14.39;66.15
3748;BME280;1889;50.058;8.688;2023-05-14T03:02:47;100332.56;;;14.43;65.94
3748;BME280;1889;50.058;8.688;2023-05-14T03:05:16;100331.00;;;14.50;65.66
3748;BME280;1889;50.058;8.688;2023-05-14T03:07:46;100325.14;;;14.54;65.52
3748;BME280;1889;50.058;8.688;2023-05-14T03:10:15;100335.69;;;14.56;65.52
3748;BME280;1889;50.058;8.688;2023-05-14T03:12:44;100333.77;;;14.46;65.80
3748;BME280;1889;50.058;8.688;2023-05-14T03:15:14;100327.56;;;14.47;65.85
3748;BME280;1889;50.058;8.688;2023-05-14T03:17:43;100328.84;;;14.48;65.65
3748;BME280;1889;50.058;8.688;2023-05-14T03:20:13;100331.27;;;14.56;65.37
3748;BME280;1889;50.058;8.688;2023-05-14T03:22:42;100324.22;;;14.55;65.15
3748;BME280;1889;50.058;8.688;2023-05-14T03:25:12;100323.92;;;14.51;65.34
3748;BME280;1889;50.058;8.688;2023-05-14T03:27:41;100320.00;;;14.49;65.33
3748;BME280;1889;50.058;8.688;2023-05-14T03:30:11;100314.58;;;14.53;65.29
3748;BME280;1889;50.058;8.688;2023-05-14T03:32:40;100318.71;;;14.48;65.44
3748;BME280;1889;50.058;8.688;2023-05-14T03:35:10;100320.36;;;14.36;65.61
3748;BME280;1889;50.058;8.688;2023-05-14T03:37:39;100315.42;;;14.40;65.38
3748;BME280;1889;50.058;8.688;2023-05-14T03:40:09;100319.20;;;14.46;64.53
3748;BME280;1889;50.058;8.688;2023-05-14T03:42:38;100314.11;;;14.40;64.65
3748;BME280;1889;50.058;8.688;2023-05-14T03:45:08;100318.16;;;14.35;64.86
3748;BME280;1889;50.058;8.688;2023-05-14T03:47:37;100321.30;;;14.35;64.84
3748;BME280;1889;50.058;8.688;2023-05-14T03:50:08;100325.42;;;14.29;65.11
3748;BME280;1889;50.058;8.688;2023-05-14T03:52:37;100327.20;;;14.13;65.43
3748;BME280;1889;50.058;8.688;2023-05-14T03:55:07;100315.33;;;14.12;65.53
3748;BME280;1889;50.058;8.688;2023-05-14T03:57:37;100317.41;;;14.17;65.40
3748;BME280;1889;50.058;8.688;2023-05-14T04:00:07;100320.73;;;14.24;65.27
3748;BME280;1889;50.058;8.688;2023-05-14T04:02:36;100319.00;;;14.23;65.32
3748;BME280;1889;50.058;8.688;2023-05-14T04:05:06;100315.11;;;14.20;65.40
3748;BME280;1889;50.058;8.688;2023-05-14T04:07:36;100315.63;;;14.18;65.49
3748;BME280;1889;50.058;8.688;2023-05-14T04:10:06;100321.48;;;13.98;65.68
3748;BME280;1889;50.058;8.688;2023-05-14T04:12:35;100311.70;;;14.01;65.75
3748;BME280;1889;50.058;8.688;2023-05-14T04:15:05;100313.55;;;14.12;65.60
3748;BME280;1889;50.058;8.688;2023-05-14T04:17:35;100326.30;;;14.14;65.57
3748;BME280;1889;50.058;8.688;2023-05-14T04:20:05;100316.13;;;14.16;65.47
3748;BME280;1889;50.058;8.688;2023-05-14T04:22:35;100318.58;;;14.22;65.22
3748;BME280;1889;50.058;8.688;2023-05-14T04:25:05;100321.19;;;14.23;64.99
3748;BME280;1889;50.058;8.688;2023-05-14T04:27:35;100318.92;;;14.26;64.95
3748;BME280;1889;50.058;8.688;2023-05-14T04:30:05;100317.48;;;14.29;64.83
3748;BME280;1889;50.058;8.688;2023-05-14T04:32:35;100321.56;;;14.26;64.98
3748;BME280;1889;50.058;8.688;2023-05-14T04:35:07;100322.97;;;14.23;65.17
3748;BME280;1889;50.058;8.688;2023-05-14T04:37:37;100328.30;;;14.21;65.30
3748;BME280;1889;50.058;8.688;2023-05-14T04:40:08;100331.52;;;14.18;65.46
3748;BME280;1889;50.058;8.688;2023-05-14T04:42:41;100333.30;;;14.17;65.54
3748;BME280;1889;50.058;8.688;2023-05-14T04:45:11;100333.13;;;14.07;65.79
3748;BME280;1889;50.058;8.688;2023-05-14T04:47:40;100335.39;;;13.57;67.37
3748;BME280;1889;50.058;8.688;2023-05-14T04:50:10;100337.27;;;13.54;67.71
3748;BME280;1889;50.058;8.688;2023-05-14T04:52:39;100342.01;;;13.73;67.30
3748;BME280;1889;50.058;8.688;2023-05-14T04:55:09;100340.23;;;13.74;67.55
3748;BME280;1889;50.058;8.688;2023-05-14T04:57:38;100334.28;;;13.82;67.50
3748;BME280;1889;50.058;8.688;2023-05-14T05:00:08;100332.22;;;13.93;67.25
3748;BME280;1889;50.058;8.688;2023-05-14T05:02:38;100340.37;;;13.86;67.58
3748;BME280;1889;50.058;8.688;2023-05-14T05:05:08;100334.12;;;14.03;67.43
3748;BME280;1889;50.058;8.688;2023-05-14T05:07:37;100341.03;;;14.08;67.59
3748;BME280;1889;50.058;8.688;2023-05-14T05:10:07;100346.17;;;13.98;68.23
3748;BME280;1889;50.058;8.688;2023-05-14T05:12:37;100344.38;;;13.68;69.63
3748;BME280;1889;50.058;8.688;2023-05-14T05:17:56;100343.69;;;14.08;68.76
3748;BME280;1889;50.058;8.688;2023-05-14T05:20:26;100344.48;;;14.27;68.36
3748;BME280;1889;50.058;8.688;2023-05-14T05:22:55;100346.14;;;14.45;68.02
3748;BME280;1889;50.058;8.688;2023-05-14T05:25:26;100345.59;;;14.64;67.67
3748;BME280;1889;50.058;8.688;2023-05-14T05:27:55;100349.13;;;14.77;67.56
3748;BME280;1889;50.058;8.688;2023-05-14T05:30:24;100347.44;;;14.89;67.35
3748;BME280;1889;50.058;8.688;2023-05-14T05:32:53;100343.05;;;15.02;67.23
3748;BME280;1889;50.058;8.688;2023-05-14T05:35:24;100340.98;;;15.11;67.14
3748;BME280;1889;50.058;8.688;2023-05-14T05:37:53;100340.51;;;15.25;66.78
3748;BME280;1889;50.058;8.688;2023-05-14T05:40:23;100338.89;;;15.21;66.80
3748;BME280;1889;50.058;8.688;2023-05-14T05:42:52;100339.18;;;15.25;67.02
3748;BME280;1889;50.058;8.688;2023-05-14T05:45:21;100339.34;;;15.47;66.52
3748;BME280;1889;50.058;8.688;2023-05-14T05:47:51;100335.37;;;15.60;66.53
3748;BME280;1889;50.058;8.688;2023-05-14T05:50:20;100335.37;;;15.60;66.53
3748;BME280;1889;50.058;8.688;2023-05-14T05:52:49;100340.59;;;15.88;66.22
3748;BME280;1889;50.058;8.688;2023-05-14T05:55:19;100337.70;;;15.94;66.19
3748;BME280;1889;50.058;8.688;2023-05-14T05:57:48;100339.84;;;15.96;66.16
3748;BME280;1889;50.058;8.688;2023-05-14T06:00:18;100339.84;;;15.96;66.16
3748;BME280;1889;50.058;8.688;2023-05-14T06:02:48;100337.44;;;15.77;65.20
3748;BME280;1889;50.058;8.688;2023-05-14T06:05:17;100337.44;;;15.77;65.20
3748;BME280;1889;50.058;8.688;2023-05-14T06:07:47;100334.12;;;15.95;64.73
3748;BME280;1889;50.058;8.688;2023-05-14T06:10:16;100336.60;;;15.99;65.11
3748;BME280;1889;50.058;8.688;2023-05-14T06:12:46;100336.60;;;15.99;65.11
3748;BME280;1889;50.058;8.688;2023-05-14T06:15:15;100342.67;;;16.15;64.36
3748;BME280;1889;50.058;8.688;2023-05-14T06:17:44;100342.22;;;16.15;64.54
3748;BME280;1889;50.058;8.688;2023-05-14T06:20:14;100342.22;;;16.15;64.54
3748;BME280;1889;50.058;8.688;2023-05-14T06:22:43;100337.21;;;16.19;64.53
3748;BME280;1889;50.058;8.688;2023-05-14T06:25:12;100340.55;;;16.24;64.29
3748;BME280;1889;50.058;8.688;2023-05-14T06:27:42;100331.48;;;16.41;63.03
3748;BME280;1889;50.058;8.688;2023-05-14T06:30:12;100335.28;;;16.46;61.92
3748;BME280;1889;50.058;8.688;2023-05-14T06:32:41;100338.99;;;16.42;62.55
3748;BME280;1889;50.058;8.688;2023-05-14T06:35:10;100334.55;;;16.19;63.11
3748;BME280;1889;50.058;8.688;2023-05-14T06:37:40;100334.55;;;16.19;63.11
3748;BME280;1889;50.058;8.688;2023-05-14T06:40:09;100342.91;;;16.32;62.66
3748;BME280;1889;50.058;8.688;2023-05-14T06:42:40;100337.83;;;16.02;63.98
3748;BME280;1889;50.058;8.688;2023-05-14T06:45:10;100335.47;;;15.82;64.79
3748;BME280;1889;50.058;8.688;2023-05-14T06:47:39;100337.47;;;16.00;64.33
3748;BME280;1889;50.058;8.688;2023-05-14T06:50:09;100329.73;;;15.94;63.37
3748;BME280;1889;50.058;8.688;2023-05-14T06:52:38;100329.73;;;15.94;63.37
3748;BME280;1889;50.058;8.688;2023-05-14T06:55:08;100333.36;;;15.67;63.74
3748;BME280;1889;50.058;8.688;2023-05-14T06:57:38;100328.35;;;16.07;63.33
3748;BME280;1889;50.058;8.688;2023-05-14T07:00:07;100328.35;;;16.07;63.33
3748;BME280;1889;50.058;8.688;2023-05-14T07:02:37;100333.21;;;16.31;62.33
3748;BME280;1889;50.058;8.688;2023-05-14T07:05:07;100323.66;;;16.62;61.88
3748;BME280;1889;50.058;8.688;2023-05-14T07:07:37;100323.66;;;16.62;61.88
3748;BME280;1889;50.058;8.688;2023-05-14T07:10:07;100319.98;;;16.76;61.38
3748;BME280;1889;50.058;8.688;2023-05-14T07:12:36;100318.38;;;17.04;60.78
3748;BME280;1889;50.058;8.688;2023-05-14T07:15:06;100316.27;;;17.02;60.73
3748;BME280;1889;50.058;8.688;2023-05-14T07:17:35;100324.70;;;16.56;61.01
3748;BME280;1889;50.058;8.688;2023-05-14T07:20:05;100313.34;;;16.41;60.84
3748;BME280;1889;50.058;8.688;2023-05-14T07:22:35;100307.05;;;16.67;59.34
3748;BME280;1889;50.058;8.688;2023-05-14T07:25:04;100302.77;;;16.63;60.66
3748;BME280;1889;50.058;8.688;2023-05-14T07:27:34;100302.77;;;16.63;60.66
3748;BME280;1889;50.058;8.688;2023-05-14T07:30:04;100295.09;;;16.67;59.99
3748;BME280;1889;50.058;8.688;2023-05-14T07:32:33;100298.05;;;16.81;59.76
3748;BME280;1889;50.058;8.688;2023-05-14T07:35:02;100297.86;;;17.07;59.46
3748;BME280;1889;50.058;8.688;2023-05-14T07:37:32;100297.48;;;17.16;59.58
3748;BME280;1889;50.058;8.688;2023-05-14T07:40:02;100292.16;;;16.85;59.25
3748;BME280;1889;50.058;8.688;2023-05-14T07:42:31;100295.62;;;17.29;58.56
3748;BME280;1889;50.058;8.688;2023-05-14T07:45:01;100294.09;;;17.23;59.16
3748;BME280;1889;50.058;8.688;2023-05-14T07:47:31;100293.84;;;17.39;59.04
3748;BME280;1889;50.058;8.688;2023-05-14T07:50:00;100292.30;;;17.44;58.24
3748;BME280;1889;50.058;8.688;2023-05-14T07:52:30;100286.12;;;17.33;57.79
3748;BME280;1889;50.058;8.688;2023-05-14T07:55:01;100280.02;;;17.62;58.44
3748;BME280;1889;50.058;8.688;2023-05-14T07:57:30;100279.69;;;17.59;58.18
3748;BME280;1889;50.058;8.688;2023-05-14T07:59:59;100274.48;;;17.46;58.31
3748;BME280;1889;50.058;8.688;2023-05-14T08:02:29;100270.37;;;17.59;57.52
3748;BME280;1889;50.058;8.688;2023-05-14T08:04:58;100276.15;;;17.79;57.60
3748;BME280;1889;50.058;8.688;2023-05-14T08:07:28;100276.15;;;17.79;57.60
3748;BME280;1889;50.058;8.688;2023-05-14T08:09:58;100276.09;;;17.50;58.47
3748;BME280;1889;50.058;8.688;2023-05-14T08:12:27;100273.03;;;17.69;58.19
3748;BME280;1889;50.058;8.688;2023-05-14T08:14:57;100270.58;;;18.04;57.57
3748;BME280;1889;50.058;8.688;2023-05-14T08:17:26;100271.27;;;18.17;56.82
3748;BME280;1889;50.058;8.688;2023-05-14T08:19:55;100271.27;;;18.17;56.82
3748;BME280;1889;50.058;8.688;2023-05-14T08:22:25;100269.91;;;18.27;56.79
3748;BME280;1889;50.058;8.688;2023-05-14T08:24:54;100269.91;;;18.27;56.79
3748;BME280;1889;50.058;8.688;2023-05-14T08:27:23;100260.50;;;18.66;55.88
3748;BME280;1889;50.058;8.688;2023-05-14T08:29:53;100262.02;;;17.87;55.46
3748;BME280;1889;50.058;8.688;2023-05-14T08:32:22;100258.77;;;18.09;56.56
3748;BME280;1889;50.058;8.688;2023-05-14T08:34:52;100254.88;;;18.35;55.97
3748;BME280;1889;50.058;8.688;2023-05-14T08:37:21;100253.25;;;18.41;53.77
3748;BME280;1889;50.058;8.688;2023-05-14T08:39:50;100247.02;;;18.51;53.73
3748;BME280;1889;50.058;8.688;2023-05-14T08:42:20;100247.02;;;18.51;53.73
3748;BME280;1889;50.058;8.688;2023-05-14T08:45:01;100248.45;;;18.77;53.30
3748;BME280;1889;50.058;8.688;2023-05-14T08:47:31;100246.92;;;18.25;52.39
3748;BME280;1889;50.058;8.688;2023-05-14T08:50:03;100244.14;;;18.55;53.14
3748;BME280;1889;50.058;8.688;2023-05-14T08:52:33;100244.14;;;18.55;53.14
3748;BME280;1889;50.058;8.688;2023-05-14T08:55:04;100243.25;;;18.56;52.70
3748;BME280;1889;50.058;8.688;2023-05-14T08:57:33;100240.59;;;18.46;51.77
3748;BME280;1889;50.058;8.688;2023-05-14T09:00:04;100241.52;;;18.45;52.46
3748;BME280;1889;50.058;8.688;2023-05-14T09:02:39;100235.92;;;17.85;51.95
3748;BME280;1889;50.058;8.688;2023-05-14T09:05:09;100234.42;;;18.54;52.02
3748;BME280;1889;50.058;8.688;2023-05-14T09:07:39;100234.42;;;18.54;52.02
3748;BME280;1889;50.058;8.688;2023-05-14T09:10:09;100234.86;;;18.45;51.34
3748;BME280;1889;50.058;8.688;2023-05-14T09:12:39;100230.27;;;18.30;52.17
3748;BME280;1889;50.058;8.688;2023-05-14T09:15:08;100230.27;;;18.30;52.17
3748;BME280;1889;50.058;8.688;2023-05-14T09:17:38;100229.83;;;18.20;51.81
3748;BME280;1889;50.058;8.688;2023-05-14T09:20:08;100233.13;;;17.88;51.62
3748;BME280;1889;50.058;8.688;2023-05-14T09:22:39;100222.03;;;17.78;52.63
3748;BME280;1889;50.058;8.688;2023-05-14T09:25:09;100222.03;;;17.78;52.63
3748;BME280;1889;50.058;8.688;2023-05-14T09:27:39;100217.33;;;17.93;52.45
3748;BME280;1889;50.058;8.688;2023-05-14T09:30:10;100220.44;;;18.03;52.40
3748;BME280;1889;50.058;8.688;2023-05-14T09:32:42;100217.84;;;18.02;52.20
3748;BME280;1889;50.058;8.688;2023-05-14T09:35:16;100217.84;;;18.02;52.20
3748;BME280;1889;50.058;8.688;2023-05-14T09:37:47;100215.95;;;18.60;51.93
3748;BME280;1889;50.058;8.688;2023-05-14T09:40:18;100215.20;;;18.92;50.46
3748;BME280;1889;50.058;8.688;2023-05-14T09:42:48;100212.61;;;18.91;48.66
3748;BME280;1889;50.058;8.688;2023-05-14T09:45:17;100207.75;;;19.25;49.15
3748;BME280;1889;50.058;8.688;2023-05-14T09:47:47;100208.16;;;19.52;48.07
3748;BME280;1889;50.058;8.688;2023-05-14T09:50:16;100204.86;;;19.29;49.74
3748;BME280;1889;50.058;8.688;2023-05-14T09:52:45;100208.01;;;19.70;50.02
3748;BME280;1889;50.058;8.688;2023-05-14T09:55:15;100213.23;;;19.89;48.56
3748;BME280;1889;50.058;8.688;2023-05-14T09:57:44;100217.10;;;19.51;48.22
3748;BME280;1889;50.058;8.688;2023-05-14T10:00:13;100213.80;;;19.37;48.39
3748;BME280;1889;50.058;8.688;2023-05-14T10:02:43;100211.48;;;19.64;48.85
3748;BME280;1889;50.058;8.688;2023-05-14T10:05:13;100211.66;;;19.43;47.52
3748;BME280;1889;50.058;8.688;2023-05-14T10:07:50;100211.43;;;19.57;47.52
3748;BME280;1889;50.058;8.688;2023-05-14T10:10:17;100210.03;;;19.15;48.12
3748;BME280;1889;50.058;8.688;2023-05-14T10:12:51;100211.29;;;19.08;47.27
3748;BME280;1889;50.058;8.688;2023-05-14T10:18:12;100211.03;;;18.70;48.72
3748;BME280;1889;50.058;8.688;2023-05-14T10:20:42;100209.78;;;18.77;48.88
3748;BME280;1889;50.058;8.688;2023-05-14T10:23:12;100211.29;;;19.08;48.31
3748;BME280;1889;50.058;8.688;2023-05-14T10:25:42;100210.89;;;19.24;48.18
3748;BME280;1889;50.058;8.688;2023-05-14T10:28:11;100208.42;;;19.63;47.04
3748;BME280;1889;50.058;8.688;2023-05-14T10:30:44;100208.42;;;19.63;47.04
3748;BME280;1889;50.058;8.688;2023-05-14T10:33:14;100206.42;;;19.08;46.15
3748;BME280;1889;50.058;8.688;2023-05-14T10:35:59;100198.73;;;19.01;46.84
3748;BME280;1889;50.058;8.688;2023-05-14T10:38:33;100198.73;;;19.01;46.84
3748;BME280;1889;50.058;8.688;2023-05-14T10:41:06;100203.28;;;19.25;46.03
3748;BME280;1889;50.058;8.688;2023-05-14T10:43:38;100196.07;;;19.10;45.53
3748;BME280;1889;50.058;8.688;2023-05-14T10:46:09;100198.02;;;19.24;47.01
3748;BME280;1889;50.058;8.688;2023-05-14T10:48:40;100189.05;;;19.42;45.89
3748;BME280;1889;50.058;8.688;2023-05-14T10:51:10;100197.24;;;19.96;46.10
3748;BME280;1889;50.058;8.688;2023-05-14T10:53:41;100192.20;;;19.83;45.68
3748;BME280;1889;50.058;8.688;2023-05-14T10:56:11;100192.97;;;20.09;45.44
3748;BME280;1889;50.058;8.688;2023-05-14T10:58:44;100183.34;;;20.14;45.04
3748;BME280;1889;50.058;8.688;2023-05-14T11:01:13;100181.49;;;20.07;45.22
3748;BME280;1889;50.058;8.688;2023-05-14T11:03:44;100174.14;;;20.51;44.95
3748;BME280;1889;50.058;8.688;2023-05-14T11:06:14;100180.58;;;20.31;43.84
3748;BME280;1889;50.058;8.688;2023-05-14T11:08:44;100172.64;;;20.30;44.32
3748;BME280;1889;50.058;8.688;2023-05-14T11:11:13;100174.64;;;20.26;44.66
3748;BME280;1889;50.058;8.688;2023-05-14T11:13:44;100167.81;;;20.20;45.12
3748;BME280;1889;50.058;8.688;2023-05-14T11:16:13;100158.70;;;20.40;45.78
3748;BME280;1889;50.058;8.688;2023-05-14T11:18:44;100167.51;;;20.65;44.68
3748;BME280;1889;50.058;8.688;2023-05-14T11:21:13;100172.90;;;20.79;44.94
3748;BME280;1889;50.058;8.688;2023-05-14T11:23:49;100172.10;;;20.47;44.48
3748;BME280;1889;50.058;8.688;2023-05-14T11:26:14;100175.64;;;20.48;44.03
3748;BME280;1889;50.058;8.688;2023-05-14T11:28:43;100167.61;;;20.16;44.58
3748;BME280;1889;50.058;8.688;2023-05-14T11:31:13;100160.23;;;20.44;44.83
3748;BME280;1889;50.058;8.688;2023-05-14T11:33:42;100159.42;;;20.35;45.29
3748;BME280;1889;50.058;8.688;2023-05-14T11:36:12;100164.23;;;20.29;44.81
3748;BME280;1889;50.058;8.688;2023-05-14T11:38:47;100163.34;;;20.05;45.80
3748;BME280;1889;50.058;8.688;2023-05-14T11:41:18;100158.98;;;20.11;44.95
3748;BME280;1889;50.058;8.688;2023-05-14T11:43:48;100157.95;;;19.98;45.55
3748;BME280;1889;50.058;8.688;2023-05-14T11:46:17;100160.22;;;20.29;44.91
3748;BME280;1889;50.058;8.688;2023-05-14T11:48:46;100149.15;;;19.96;45.27
3748;BME280;1889;50.058;8.688;2023-05-14T11:51:15;100154.73;;;19.60;45.99
3748;BME280;1889;50.058;8.688;2023-05-14T11:53:44;100152.47;;;19.44;47.41
3748;BME280;1889;50.058;8.688;2023-05-14T11:56:14;100145.73;;;19.94;46.82
3748;BME280;1889;50.058;8.688;2023-05-14T11:58:47;100145.29;;;20.17;46.35
3748;BME280;1889;50.058;8.688;2023-05-14T12:01:16;100135.22;;;20.45;46.41
3748;BME280;1889;50.058;8.688;2023-05-14T12:03:46;100136.78;;;20.79;45.79
3748;BME280;1889;50.058;8.688;2023-05-14T12:06:15;100132.73;;;21.09;44.97
3748;BME280;1889;50.058;8.688;2023-05-14T12:08:46;100130.91;;;21.03;44.52
3748;BME280;1889;50.058;8.688;2023-05-14T12:11:14;100122.93;;;20.80;44.67
3748;BME280;1889;50.058;8.688;2023-05-14T12:13:45;100127.25;;;20.60;44.51
3748;BME280;1889;50.058;8.688;2023-05-14T12:16:14;100129.17;;;20.94;44.28
3748;BME280;1889;50.058;8.688;2023-05-14T12:18:44;100129.08;;;20.96;43.98
3748;BME280;1889;50.058;8.688;2023-05-14T12:21:13;100119.29;;;21.18;43.98
3748;BME280;1889;50.058;8.688;2023-05-14T12:23:42;100122.36;;;21.19;43.65
3748;BME280;1889;50.058;8.688;2023-05-14T12:26:11;100115.48;;;21.22;44.14
3748;BME280;1889;50.058;8.688;2023-05-14T12:28:40;100116.34;;;21.72;44.40
3748;BME280;1889;50.058;8.688;2023-05-14T12:31:10;100113.03;;;21.95;43.17
3748;BME280;1889;50.058;8.688;2023-05-14T12:33:39;100108.71;;;22.07;43.16
3748;BME280;1889;50.058;8.688;2023-05-14T12:36:08;100108.28;;;22.67;41.84
3748;BME280;1889;50.058;8.688;2023-05-14T12:38:37;100102.38;;;22.81;40.84
3748;BME280;1889;50.058;8.688;2023-05-14T12:41:08;100100.20;;;23.06;39.95
3748;BME280;1889;50.058;8.688;2023-05-14T12:43:37;100101.97;;;23.13;40.37
3748;BME280;1889;50.058;8.688;2023-05-14T12:46:06;100100.53;;;23.14;39.64
3748;BME280;1889;50.058;8.688;2023-05-14T12:48:35;100090.32;;;23.32;39.53
3748;BME280;1889;50.058;8.688;2023-05-14T12:51:04;100086.67;;;22.56;39.95
3748;BME280;1889;50.058;8.688;2023-05-14T12:53:34;100083.64;;;22.87;40.92
3748;BME280;1889;50.058;8.688;2023-05-14T12:56:03;100077.92;;;22.99;40.45
3748;BME280;1889;50.058;8.688;2023-05-14T12:58:32;100074.95;;;22.96;40.28
3748;BME280;1889;50.058;8.688;2023-05-14T13:01:01;100072.53;;;22.46;41.02
3748;BME280;1889;50.058;8.688;2023-05-14T13:03:31;100068.99;;;22.46;41.24
3748;BME280;1889;50.058;8.688;2023-05-14T13:06:00;100064.88;;;22.48;41.33
3748;BME280;1889;50.058;8.688;2023-05-14T13:08:29;100067.92;;;22.36;40.87
3748;BME280;1889;50.058;8.688;2023-05-14T13:10:58;100069.19;;;22.63;41.76
3748;BME280;1889;50.058;8.688;2023-05-14T13:13:27;100067.75;;;22.64;41.47
3748;BME280;1889;50.058;8.688;2023-05-14T13:15:56;100061.30;;;22.87;41.17
3748;BME280;1889;50.058;8.688;2023-05-14T13:18:25;100062.91;;;22.57;41.13
3748;BME280;1889;50.058;8.688;2023-05-14T13:20:54;100062.72;;;22.72;40.92
3748;BME280;1889;50.058;8.688;2023-05-14T13:23:23;100056.47;;;22.79;41.31
3748;BME280;1889;50.058;8.688;2023-05-14T13:25:52;100060.04;;;22.92;41.22
3748;BME280;1889;50.058;8.688;2023-05-14T13:28:21;100058.14;;;23.12;40.36
3748;BME280;1889;50.058;8.688;2023-05-14T13:31:04;100045.92;;;23.39;40.06
3748;BME280;1889;50.058;8.688;2023-05-14T13:33:35;100049.28;;;23.05;39.11